Sagar Kanya — VTJR — position and weather

sailwx.info

Track history (hours):
 
Tides and Currents Weather Stations Pressure Air Temp Water Temp Dewpoint Dewpoint Depression Visibility Wind Speed Wind Dir Waves Ship Positions

Oceanographic research ship Sagar Kanya (India)

Detailed information on ship capabilities available from University of Delaware's Ocean Information Center.

Last reported at 2017-Mar-24 00:10 UTC. Time now 2017-Mar-26 03:30 UTC.
Position N 10°42' E 072°12'.

Type: Other ship. MMSI: 419320000.

Wind from 030 at 4 knots

Barometer 1011.1 mb
Air temperature 28.1 ° C

Date/timePositionNaut miles runAvg speedWind from/ knotsBaromVisibWave heightAir tempDewpointWater temp
2017-Mar-24 00:10N 10°42' E 072°12'6 1.7 030 / 41011.1 28.1
2017-Mar-23 20:40N 10°36' E 072°12'6 1.1 010 / 101010.8 28.2
2017-Mar-23 15:10N 10°42' E 072°12'30 5.0 310 / 121012.4 28.7
2017-Mar-23 09:10N 11°06' E 071°54'22 7.2 280 / 101011.6 28.8
2017-Mar-23 06:10N 11°24' E 071°42'21 7.2 220 / 61014.3 28.3
2017-Mar-23 03:10N 11°42' E 071°30'21 7.2 330 / 41013.9 28.1
2017-Mar-23 00:10N 12°00' E 071°18'21 7.2 010 / 61011.0 27.4
2017-Mar-22 21:10N 12°18' E 071°06'27 8.9 020 / 61010.8 27.2
2017-Mar-22 18:10N 12°42' E 070°54'21 7.2 340 / 81012.9 27.5
2017-Mar-22 15:10N 13°00' E 070°42'19 6.3 010 / 81012.5 27.7
2017-Mar-22 12:10N 13°18' E 070°36'21 7.2 020 / 101011.1 28.9
2017-Mar-22 09:10N 13°36' E 070°24'21 7.1 020 / 121012.1 28.4
2017-Mar-22 06:10N 13°54' E 070°12'48 8.0 030 / 141015.6 28.2
2017-Mar-22 00:10N 14°36' E 069°48'21 7.1 330 / 101012.5 26.8
2017-Mar-21 21:10N 14°54' E 069°36'21 7.1 330 / 81013.4 26.4
2017-Mar-21 18:10N 15°12' E 069°24'19 6.3 280 / 61015.5 26.9
2017-Mar-21 15:10N 15°30' E 069°18'21 7.1 030 1015.0 27.2
2017-Mar-21 12:10N 15°48' E 069°06'21 7.1 030 / 81013.0 27.9
2017-Mar-21 09:10N 16°06' E 068°54'30 9.9 050 / 61013.6 27.0
2017-Mar-21 06:10N 16°30' E 068°36'21 7.1 030 / 81016.1 26.6
2017-Mar-21 03:10N 16°48' E 068°24'27 8.9 020 / 41015.0 26.4
2017-Mar-21 00:10N 17°12' E 068°12'21 7.1 300 / 61013.4 25.5
2017-Mar-20 21:10N 17°30' E 068°00'19 6.3 330 / 41013.9 25.8
2017-Mar-20 18:10N 17°48' E 067°54'21 7.1 360 / 41014.9 26.0
2017-Mar-20 15:10N 18°06' E 067°42'17 5.5 010 / 61014.1 26.1
2017-Mar-20 12:10N 18°18' E 067°30'13 4.4 340 / 61012.7 29.1
2017-Mar-20 09:10N 18°30' E 067°24'6 1.9 020 / 21014.0 27.8
2017-Mar-20 06:10N 18°30' E 067°30'0 0.0 350 / 81016.6 26.6
2017-Mar-20 02:40N 18°30' E 067°30'6 2.0 030 / 61014.8 25.7
2017-Mar-19 23:40N 18°36' E 067°30'0 0.0 340 / 101013.2 25.4
2017-Mar-19 21:10N 18°36' E 067°30'6 2.0 320 / 81013.5 25.3
2017-Mar-19 18:10N 18°30' E 067°30'6 2.0 310 / 81015.2 25.4
2017-Mar-19 15:10N 18°36' E 067°30'0 0.0 300 / 21014.9 25.6
2017-Mar-19 12:10N 18°36' E 067°30'6 2.0 320 / 81014.0 26.7
2017-Mar-19 09:10N 18°30' E 067°30'0 0.0 280 / 81015.3 26.2
2017-Mar-19 06:10N 18°30' E 067°30'0 0.0 330 / 81016.8 25.9
2017-Mar-19 03:10N 18°30' E 067°30'0 0.0 310 / 101015.9 25.2
2017-Mar-19 00:10N 18°30' E 067°30'6 2.0 310 / 141013.5 25.2
2017-Mar-18 21:10N 18°36' E 067°30'0 0.0 310 / 101013.8 25.2
2017-Mar-18 18:10N 18°36' E 067°30'0 0.0 310 / 81015.1 25.4
2017-Mar-18 15:10N 18°36' E 067°30'24 8.0 320 / 101014.4 25.4
2017-Mar-18 12:10N 19°00' E 067°30'19 6.3 320 / 121013.5 26.2
2017-Mar-18 09:10N 19°18' E 067°36'18 6.0 320 / 141014.2 26.1
2017-Mar-18 06:10N 19°36' E 067°36'0 0.0 310 / 141016.7 26.1
2017-Mar-18 03:10N 19°36' E 067°36'21 7.1 260 / 161015.8 25.7
2017-Mar-18 00:10N 19°18' E 067°48'25 8.3 270 / 101013.9 25.9
2017-Mar-17 21:10N 19°00' E 068°06'21 7.1 270 / 81014.0 26.3
2017-Mar-17 18:10N 18°42' E 068°18'21 7.0 320 / 81015.6 26.8
2017-Mar-17 15:10N 18°30' E 068°36'17 5.5 340 / 81014.4 27.0
2017-Mar-17 12:10N 18°18' E 068°48'25 8.3 350 / 81012.7 27.0
2017-Mar-17 09:10N 18°00' E 069°06'21 6.0 1013.6 26.8
2017-Mar-17 05:40N 17°48' E 069°24'21 8.4 360 / 101016.1 26.9
2017-Mar-17 03:10N 17°36' E 069°42'21 7.0 340 / 121014.8 26.8
2017-Mar-17 00:10N 17°24' E 070°00'26 8.6 310 / 81012.1 27.0
2017-Mar-16 21:10N 17°12' E 070°24'21 7.0 330 / 61012.5 26.9
2017-Mar-16 18:10N 17°00' E 070°42'21 7.0 330 / 61014.0 27.4
2017-Mar-16 15:10N 16°48' E 071°00'21 7.0 340 / 121013.4 27.3
2017-Mar-16 12:10N 16°36' E 071°18'47 7.8 300 / 81011.9 27.6
2017-Mar-16 06:10N 16°12' E 072°00'31 5.2 310 / 41015.1 27.4
2017-Mar-16 00:10N 16°00' E 072°30'21 7.0 320 / 81012.4 27.2
2017-Mar-15 21:10N 15°48' E 072°48'24 8.0 310 / 101011.8 27.4
2017-Mar-15 18:10N 15°42' E 073°12'21 7.0 280 / 81013.2 27.5
2017-Mar-15 15:10N 15°30' E 073°30'18 6.1 300 / 101012.4 27.9
2017-Mar-15 12:10N 15°24' E 073°48'0 0.0 280 / 141010.2 28.1
2017-Mar-15 05:40N 15°24' E 073°48'0 0.0 270 / 21013.7 30.2
2017-Mar-15 03:10N 15°24' E 073°48'0 0.0 090 / 61013.4 25.7
2017-Mar-15 00:10N 15°24' E 073°48'0 0.0 070 / 41011.6 25.4
2017-Mar-14 21:10N 15°24' E 073°48'0 0.0 040 / 21011.6 26.5
2017-Mar-14 18:10N 15°24' E 073°48'0 0.0 300 / 61012.5 27.8
2017-Mar-14 15:10N 15°24' E 073°48'0 0.0 270 / 61011.8 28.1
2017-Mar-14 12:10N 15°24' E 073°48'0 0.0 230 / 81009.7 29.0
2017-Mar-14 09:10N 15°24' E 073°48'0 0.0 220 / 81010.3 28.1
2017-Mar-14 06:10N 15°24' E 073°48'0 0.0 230 / 41014.0 29.1
2017-Mar-14 03:10N 15°24' E 073°48'0 0.0 070 / 41014.1 24.7
2017-Mar-14 00:10N 15°24' E 073°48'   070 / 81011.3 24.5
Track history (hours):
 
Tides and Currents Weather Stations Pressure Air Temp Water Temp Dewpoint Dewpoint Depression Visibility Wind Speed Wind Dir Waves Ship Positions

Oceanographic research ship Sagar Kanya (India)

Detailed information on ship capabilities available from University of Delaware's Ocean Information Center.

Last reported at 2017-Mar-24 00:10 UTC. Time now 2017-Mar-26 03:30 UTC.
Position N 10°42' E 072°12'.

Type: Other ship. MMSI: 419320000.

Wind from 030 at 4 knots

Barometer 1011.1 mb
Air temperature 28.1 ° C

Date/timePositionNaut miles runAvg speedWind from/ knotsBaromVisibWave heightAir tempDewpointWater temp
2017-Mar-24 00:10N 10°42' E 072°12'6 1.7 030 / 41011.1 28.1
2017-Mar-23 20:40N 10°36' E 072°12'6 1.1 010 / 101010.8 28.2
2017-Mar-23 15:10N 10°42' E 072°12'30 5.0 310 / 121012.4 28.7
2017-Mar-23 09:10N 11°06' E 071°54'22 7.2 280 / 101011.6 28.8
2017-Mar-23 06:10N 11°24' E 071°42'21 7.2 220 / 61014.3 28.3
2017-Mar-23 03:10N 11°42' E 071°30'21 7.2 330 / 41013.9 28.1
2017-Mar-23 00:10N 12°00' E 071°18'21 7.2 010 / 61011.0 27.4
2017-Mar-22 21:10N 12°18' E 071°06'27 8.9 020 / 61010.8 27.2
2017-Mar-22 18:10N 12°42' E 070°54'21 7.2 340 / 81012.9 27.5
2017-Mar-22 15:10N 13°00' E 070°42'19 6.3 010 / 81012.5 27.7
2017-Mar-22 12:10N 13°18' E 070°36'21 7.2 020 / 101011.1 28.9
2017-Mar-22 09:10N 13°36' E 070°24'21 7.1 020 / 121012.1 28.4
2017-Mar-22 06:10N 13°54' E 070°12'48 8.0 030 / 141015.6 28.2
2017-Mar-22 00:10N 14°36' E 069°48'21 7.1 330 / 101012.5 26.8
2017-Mar-21 21:10N 14°54' E 069°36'21 7.1 330 / 81013.4 26.4
2017-Mar-21 18:10N 15°12' E 069°24'19 6.3 280 / 61015.5 26.9
2017-Mar-21 15:10N 15°30' E 069°18'21 7.1 030 1015.0 27.2
2017-Mar-21 12:10N 15°48' E 069°06'21 7.1 030 / 81013.0 27.9
2017-Mar-21 09:10N 16°06' E 068°54'30 9.9 050 / 61013.6 27.0
2017-Mar-21 06:10N 16°30' E 068°36'21 7.1 030 / 81016.1 26.6
2017-Mar-21 03:10N 16°48' E 068°24'27 8.9 020 / 41015.0 26.4
2017-Mar-21 00:10N 17°12' E 068°12'21 7.1 300 / 61013.4 25.5
2017-Mar-20 21:10N 17°30' E 068°00'19 6.3 330 / 41013.9 25.8
2017-Mar-20 18:10N 17°48' E 067°54'21 7.1 360 / 41014.9 26.0
2017-Mar-20 15:10N 18°06' E 067°42'17 5.5 010 / 61014.1 26.1
2017-Mar-20 12:10N 18°18' E 067°30'13 4.4 340 / 61012.7 29.1
2017-Mar-20 09:10N 18°30' E 067°24'6 1.9 020 / 21014.0 27.8
2017-Mar-20 06:10N 18°30' E 067°30'0 0.0 350 / 81016.6 26.6
2017-Mar-20 02:40N 18°30' E 067°30'6 2.0 030 / 61014.8 25.7
2017-Mar-19 23:40N 18°36' E 067°30'0 0.0 340 / 101013.2 25.4
2017-Mar-19 21:10N 18°36' E 067°30'6 2.0 320 / 81013.5 25.3
2017-Mar-19 18:10N 18°30' E 067°30'6 2.0 310 / 81015.2 25.4
2017-Mar-19 15:10N 18°36' E 067°30'0 0.0 300 / 21014.9 25.6
2017-Mar-19 12:10N 18°36' E 067°30'6 2.0 320 / 81014.0 26.7
2017-Mar-19 09:10N 18°30' E 067°30'0 0.0 280 / 81015.3 26.2
2017-Mar-19 06:10N 18°30' E 067°30'0 0.0 330 / 81016.8 25.9
2017-Mar-19 03:10N 18°30' E 067°30'0 0.0 310 / 101015.9 25.2
2017-Mar-19 00:10N 18°30' E 067°30'6 2.0 310 / 141013.5 25.2
2017-Mar-18 21:10N 18°36' E 067°30'0 0.0 310 / 101013.8 25.2
2017-Mar-18 18:10N 18°36' E 067°30'0 0.0 310 / 81015.1 25.4
2017-Mar-18 15:10N 18°36' E 067°30'24 8.0 320 / 101014.4 25.4
2017-Mar-18 12:10N 19°00' E 067°30'19 6.3 320 / 121013.5 26.2
2017-Mar-18 09:10N 19°18' E 067°36'18 6.0 320 / 141014.2 26.1
2017-Mar-18 06:10N 19°36' E 067°36'0 0.0 310 / 141016.7 26.1
2017-Mar-18 03:10N 19°36' E 067°36'21 7.1 260 / 161015.8 25.7
2017-Mar-18 00:10N 19°18' E 067°48'25 8.3 270 / 101013.9 25.9
2017-Mar-17 21:10N 19°00' E 068°06'21 7.1 270 / 81014.0 26.3
2017-Mar-17 18:10N 18°42' E 068°18'21 7.0 320 / 81015.6 26.8
2017-Mar-17 15:10N 18°30' E 068°36'17 5.5 340 / 81014.4 27.0
2017-Mar-17 12:10N 18°18' E 068°48'25 8.3 350 / 81012.7 27.0
2017-Mar-17 09:10N 18°00' E 069°06'21 6.0 1013.6 26.8
2017-Mar-17 05:40N 17°48' E 069°24'21 8.4 360 / 101016.1 26.9
2017-Mar-17 03:10N 17°36' E 069°42'21 7.0 340 / 121014.8 26.8
2017-Mar-17 00:10N 17°24' E 070°00'26 8.6 310 / 81012.1 27.0
2017-Mar-16 21:10N 17°12' E 070°24'21 7.0 330 / 61012.5 26.9
2017-Mar-16 18:10N 17°00' E 070°42'21 7.0 330 / 61014.0 27.4
2017-Mar-16 15:10N 16°48' E 071°00'21 7.0 340 / 121013.4 27.3
2017-Mar-16 12:10N 16°36' E 071°18'47 7.8 300 / 81011.9 27.6
2017-Mar-16 06:10N 16°12' E 072°00'31 5.2 310 / 41015.1 27.4
2017-Mar-16 00:10N 16°00' E 072°30'21 7.0 320 / 81012.4 27.2
2017-Mar-15 21:10N 15°48' E 072°48'24 8.0 310 / 101011.8 27.4
2017-Mar-15 18:10N 15°42' E 073°12'21 7.0 280 / 81013.2 27.5
2017-Mar-15 15:10N 15°30' E 073°30'18 6.1 300 / 101012.4 27.9
2017-Mar-15 12:10N 15°24' E 073°48'0 0.0 280 / 141010.2 28.1
2017-Mar-15 05:40N 15°24' E 073°48'0 0.0 270 / 21013.7 30.2
2017-Mar-15 03:10N 15°24' E 073°48'0 0.0 090 / 61013.4 25.7
2017-Mar-15 00:10N 15°24' E 073°48'0 0.0 070 / 41011.6 25.4
2017-Mar-14 21:10N 15°24' E 073°48'0 0.0 040 / 21011.6 26.5
2017-Mar-14 18:10N 15°24' E 073°48'0 0.0 300 / 61012.5 27.8
2017-Mar-14 15:10N 15°24' E 073°48'0 0.0 270 / 61011.8 28.1
2017-Mar-14 12:10N 15°24' E 073°48'0 0.0 230 / 81009.7 29.0
2017-Mar-14 09:10N 15°24' E 073°48'0 0.0 220 / 81010.3 28.1
2017-Mar-14 06:10N 15°24' E 073°48'0 0.0 230 / 41014.0 29.1
2017-Mar-14 03:10N 15°24' E 073°48'0 0.0 070 / 41014.1 24.7
2017-Mar-14 00:10N 15°24' E 073°48'   070 / 81011.3 24.5

Dump ship's entire track history